sensor_id;sensor_type;location;lat;lon;timestamp;P1;durP1;ratioP1;P2;durP2;ratioP2
64291;SDS011;50628;51.008;13.658;2023-09-12T00:02:08;7.50;;;6.18;;
64291;SDS011;50628;51.008;13.658;2023-09-12T00:07:10;7.53;;;6.50;;
64291;SDS011;50628;51.008;13.658;2023-09-12T00:12:14;8.57;;;6.70;;
64291;SDS011;50628;51.008;13.658;2023-09-12T00:17:16;8.40;;;5.93;;
64291;SDS011;50628;51.008;13.658;2023-09-12T00:22:18;5.93;;;5.43;;
64291;SDS011;50628;51.008;13.658;2023-09-12T00:27:21;7.88;;;6.10;;
64291;SDS011;50628;51.008;13.658;2023-09-12T00:32:23;8.57;;;5.45;;
64291;SDS011;50628;51.008;13.658;2023-09-12T00:37:25;12.93;;;6.72;;
64291;SDS011;50628;51.008;13.658;2023-09-12T00:42:28;7.10;;;6.25;;
64291;SDS011;50628;51.008;13.658;2023-09-12T00:47:30;7.80;;;6.05;;
64291;SDS011;50628;51.008;13.658;2023-09-12T00:52:33;10.15;;;5.10;;
64291;SDS011;50628;51.008;13.658;2023-09-12T00:57:37;9.45;;;6.35;;
64291;SDS011;50628;51.008;13.658;2023-09-12T01:02:40;13.35;;;6.80;;
64291;SDS011;50628;51.008;13.658;2023-09-12T01:07:44;8.35;;;7.28;;
64291;SDS011;50628;51.008;13.658;2023-09-12T01:12:47;10.75;;;7.20;;
64291;SDS011;50628;51.008;13.658;2023-09-12T01:17:49;9.38;;;7.38;;
64291;SDS011;50628;51.008;13.658;2023-09-12T01:23:06;7.30;;;6.60;;
64291;SDS011;50628;51.008;13.658;2023-09-12T01:28:19;9.88;;;6.20;;
64291;SDS011;50628;51.008;13.658;2023-09-12T01:33:26;7.30;;;5.80;;
64291;SDS011;50628;51.008;13.658;2023-09-12T01:38:28;22.00;;;7.60;;
64291;SDS011;50628;51.008;13.658;2023-09-12T01:43:31;11.20;;;7.38;;
64291;SDS011;50628;51.008;13.658;2023-09-12T01:48:34;41.92;;;10.73;;
64291;SDS011;50628;51.008;13.658;2023-09-12T01:53:37;7.40;;;6.00;;
64291;SDS011;50628;51.008;13.658;2023-09-12T01:58:41;8.68;;;6.22;;
64291;SDS011;50628;51.008;13.658;2023-09-12T02:03:43;10.40;;;7.85;;
64291;SDS011;50628;51.008;13.658;2023-09-12T02:08:45;9.38;;;7.07;;
64291;SDS011;50628;51.008;13.658;2023-09-12T02:13:48;7.10;;;6.40;;
64291;SDS011;50628;51.008;13.658;2023-09-12T02:18:50;12.18;;;6.90;;
64291;SDS011;50628;51.008;13.658;2023-09-12T02:23:52;11.43;;;7.63;;
64291;SDS011;50628;51.008;13.658;2023-09-12T02:28:55;9.63;;;7.15;;
64291;SDS011;50628;51.008;13.658;2023-09-12T02:33:57;12.88;;;7.35;;
64291;SDS011;50628;51.008;13.658;2023-09-12T02:38:59;7.78;;;6.22;;
64291;SDS011;50628;51.008;13.658;2023-09-12T02:44:02;9.45;;;5.68;;
64291;SDS011;50628;51.008;13.658;2023-09-12T02:49:04;8.07;;;6.80;;
64291;SDS011;50628;51.008;13.658;2023-09-12T02:54:06;12.68;;;7.03;;
64291;SDS011;50628;51.008;13.658;2023-09-12T02:59:10;7.13;;;6.43;;
64291;SDS011;50628;51.008;13.658;2023-09-12T03:04:12;9.43;;;6.88;;
64291;SDS011;50628;51.008;13.658;2023-09-12T03:09:14;11.18;;;6.88;;
64291;SDS011;50628;51.008;13.658;2023-09-12T03:14:19;7.57;;;6.82;;
64291;SDS011;50628;51.008;13.658;2023-09-12T03:19:21;10.77;;;7.90;;
64291;SDS011;50628;51.008;13.658;2023-09-12T03:24:23;15.15;;;8.98;;
64291;SDS011;50628;51.008;13.658;2023-09-12T03:29:26;14.27;;;7.90;;
64291;SDS011;50628;51.008;13.658;2023-09-12T03:34:29;10.15;;;6.95;;
64291;SDS011;50628;51.008;13.658;2023-09-12T03:39:31;18.60;;;8.25;;
64291;SDS011;50628;51.008;13.658;2023-09-12T03:44:34;14.43;;;8.43;;
64291;SDS011;50628;51.008;13.658;2023-09-12T03:49:36;10.60;;;7.53;;
64291;SDS011;50628;51.008;13.658;2023-09-12T03:54:38;15.47;;;8.97;;
64291;SDS011;50628;51.008;13.658;2023-09-12T03:59:43;8.80;;;7.83;;
64291;SDS011;50628;51.008;13.658;2023-09-12T04:04:47;11.03;;;8.20;;
64291;SDS011;50628;51.008;13.658;2023-09-12T04:09:48;12.80;;;8.70;;
64291;SDS011;50628;51.008;13.658;2023-09-12T04:14:52;10.57;;;8.40;;
64291;SDS011;50628;51.008;13.658;2023-09-12T04:19:55;13.60;;;8.70;;
64291;SDS011;50628;51.008;13.658;2023-09-12T04:24:57;12.50;;;8.50;;
64291;SDS011;50628;51.008;13.658;2023-09-12T04:30:00;16.87;;;9.20;;
64291;SDS011;50628;51.008;13.658;2023-09-12T04:35:04;15.37;;;9.20;;
64291;SDS011;50628;51.008;13.658;2023-09-12T04:40:07;11.37;;;8.53;;
64291;SDS011;50628;51.008;13.658;2023-09-12T04:45:11;12.80;;;8.73;;
64291;SDS011;50628;51.008;13.658;2023-09-12T04:50:14;16.47;;;8.67;;
64291;SDS011;50628;51.008;13.658;2023-09-12T04:55:16;13.67;;;9.07;;
64291;SDS011;50628;51.008;13.658;2023-09-12T05:00:20;15.57;;;9.73;;
64291;SDS011;50628;51.008;13.658;2023-09-12T05:05:22;15.10;;;8.87;;
64291;SDS011;50628;51.008;13.658;2023-09-12T05:10:24;14.50;;;8.63;;
64291;SDS011;50628;51.008;13.658;2023-09-12T05:15:28;19.90;;;9.87;;
64291;SDS011;50628;51.008;13.658;2023-09-12T05:20:30;37.03;;;11.60;;
64291;SDS011;50628;51.008;13.658;2023-09-12T05:25:32;19.40;;;9.57;;
64291;SDS011;50628;51.008;13.658;2023-09-12T05:30:35;13.67;;;9.20;;
64291;SDS011;50628;51.008;13.658;2023-09-12T05:35:37;28.53;;;10.77;;
64291;SDS011;50628;51.008;13.658;2023-09-12T05:40:39;26.60;;;10.30;;
64291;SDS011;50628;51.008;13.658;2023-09-12T05:45:43;14.57;;;9.50;;
64291;SDS011;50628;51.008;13.658;2023-09-12T05:50:45;17.37;;;9.43;;
64291;SDS011;50628;51.008;13.658;2023-09-12T05:55:47;19.98;;;9.27;;
64291;SDS011;50628;51.008;13.658;2023-09-12T06:00:50;18.70;;;9.48;;
64291;SDS011;50628;51.008;13.658;2023-09-12T06:05:52;18.38;;;8.65;;
64291;SDS011;50628;51.008;13.658;2023-09-12T06:10:54;9.57;;;7.03;;
64291;SDS011;50628;51.008;13.658;2023-09-12T06:15:58;14.35;;;7.13;;
64291;SDS011;50628;51.008;13.658;2023-09-12T06:20:59;13.02;;;7.90;;
64291;SDS011;50628;51.008;13.658;2023-09-12T06:26:04;12.27;;;6.63;;
64291;SDS011;50628;51.008;13.658;2023-09-12T06:31:08;18.42;;;8.45;;
64291;SDS011;50628;51.008;13.658;2023-09-12T06:36:10;10.32;;;6.63;;
64291;SDS011;50628;51.008;13.658;2023-09-12T06:41:12;15.20;;;6.70;;
64291;SDS011;50628;51.008;13.658;2023-09-12T06:46:15;13.60;;;7.57;;
64291;SDS011;50628;51.008;13.658;2023-09-12T06:51:18;10.00;;;7.18;;
64291;SDS011;50628;51.008;13.658;2023-09-12T06:56:24;14.10;;;7.70;;
64291;SDS011;50628;51.008;13.658;2023-09-12T07:01:28;8.77;;;6.25;;
64291;SDS011;50628;51.008;13.658;2023-09-12T07:06:30;15.10;;;7.15;;
64291;SDS011;50628;51.008;13.658;2023-09-12T07:11:32;14.75;;;7.57;;
64291;SDS011;50628;51.008;13.658;2023-09-12T07:16:36;16.63;;;8.13;;
64291;SDS011;50628;51.008;13.658;2023-09-12T07:21:38;15.45;;;7.68;;
64291;SDS011;50628;51.008;13.658;2023-09-12T07:26:40;17.70;;;7.72;;
64291;SDS011;50628;51.008;13.658;2023-09-12T07:31:43;13.98;;;6.72;;
64291;SDS011;50628;51.008;13.658;2023-09-12T07:36:45;16.88;;;7.15;;
64291;SDS011;50628;51.008;13.658;2023-09-12T07:41:47;18.30;;;8.40;;
64291;SDS011;50628;51.008;13.658;2023-09-12T07:46:50;14.13;;;6.60;;
64291;SDS011;50628;51.008;13.658;2023-09-12T07:51:52;16.50;;;6.22;;
64291;SDS011;50628;51.008;13.658;2023-09-12T07:56:57;16.25;;;6.90;;
64291;SDS011;50628;51.008;13.658;2023-09-12T08:02:02;30.17;;;6.57;;
64291;SDS011;50628;51.008;13.658;2023-09-12T08:07:05;14.20;;;5.63;;
64291;SDS011;50628;51.008;13.658;2023-09-12T08:12:07;12.90;;;4.70;;
64291;SDS011;50628;51.008;13.658;2023-09-12T08:17:10;17.77;;;6.03;;
64291;SDS011;50628;51.008;13.658;2023-09-12T08:22:12;11.80;;;4.95;;
64291;SDS011;50628;51.008;13.658;2023-09-12T08:27:14;11.90;;;6.00;;
64291;SDS011;50628;51.008;13.658;2023-09-12T08:32:18;10.75;;;5.03;;
64291;SDS011;50628;51.008;13.658;2023-09-12T08:37:19;13.32;;;5.57;;
64291;SDS011;50628;51.008;13.658;2023-09-12T08:42:21;13.55;;;5.20;;
64291;SDS011;50628;51.008;13.658;2023-09-12T08:47:26;15.10;;;5.43;;
64291;SDS011;50628;51.008;13.658;2023-09-12T08:52:28;15.82;;;5.68;;
64291;SDS011;50628;51.008;13.658;2023-09-12T08:57:30;14.40;;;6.57;;
64291;SDS011;50628;51.008;13.658;2023-09-12T09:02:36;16.65;;;6.28;;
64291;SDS011;50628;51.008;13.658;2023-09-12T09:07:39;17.20;;;6.28;;
64291;SDS011;50628;51.008;13.658;2023-09-12T09:12:43;9.85;;;5.53;;
64291;SDS011;50628;51.008;13.658;2023-09-12T09:17:47;16.48;;;12.07;;
64291;SDS011;50628;51.008;13.658;2023-09-12T09:22:56;17.17;;;9.13;;
64291;SDS011;50628;51.008;13.658;2023-09-12T09:28:02;12.80;;;7.18;;
64291;SDS011;50628;51.008;13.658;2023-09-12T09:33:06;14.88;;;5.93;;
64291;SDS011;50628;51.008;13.658;2023-09-12T09:38:08;13.50;;;8.15;;
64291;SDS011;50628;51.008;13.658;2023-09-12T09:43:13;15.45;;;7.97;;
64291;SDS011;50628;51.008;13.658;2023-09-12T09:48:23;8.85;;;5.20;;
64291;SDS011;50628;51.008;13.658;2023-09-12T09:53:27;12.90;;;6.13;;
64291;SDS011;50628;51.008;13.658;2023-09-12T09:58:30;11.18;;;5.35;;
64291;SDS011;50628;51.008;13.658;2023-09-12T10:03:33;10.38;;;5.50;;
64291;SDS011;50628;51.008;13.658;2023-09-12T10:08:37;12.93;;;5.18;;
64291;SDS011;50628;51.008;13.658;2023-09-12T10:13:44;14.93;;;5.45;;
64291;SDS011;50628;51.008;13.658;2023-09-12T10:18:58;14.82;;;5.35;;
64291;SDS011;50628;51.008;13.658;2023-09-12T10:24:07;11.70;;;4.72;;
64291;SDS011;50628;51.008;13.658;2023-09-12T10:29:10;12.73;;;6.20;;
64291;SDS011;50628;51.008;13.658;2023-09-12T10:34:16;28.20;;;10.77;;
64291;SDS011;50628;51.008;13.658;2023-09-12T10:39:18;18.38;;;6.60;;
64291;SDS011;50628;51.008;13.658;2023-09-12T10:44:22;21.23;;;6.30;;
64291;SDS011;50628;51.008;13.658;2023-09-12T10:49:27;18.25;;;5.40;;
64291;SDS011;50628;51.008;13.658;2023-09-12T10:54:35;12.40;;;4.75;;
64291;SDS011;50628;51.008;13.658;2023-09-12T10:59:42;10.35;;;4.70;;
64291;SDS011;50628;51.008;13.658;2023-09-12T11:16:20;14.82;;;6.65;;
64291;SDS011;50628;51.008;13.658;2023-09-12T11:21:32;11.32;;;4.18;;
64291;SDS011;50628;51.008;13.658;2023-09-12T11:26:34;13.25;;;5.20;;
64291;SDS011;50628;51.008;13.658;2023-09-12T11:31:36;16.98;;;4.78;;
64291;SDS011;50628;51.008;13.658;2023-09-12T11:36:43;15.23;;;5.53;;
64291;SDS011;50628;51.008;13.658;2023-09-12T11:41:47;14.32;;;4.80;;
64291;SDS011;50628;51.008;13.658;2023-09-12T11:46:49;18.98;;;4.70;;
64291;SDS011;50628;51.008;13.658;2023-09-12T11:51:53;14.50;;;5.47;;
64291;SDS011;50628;51.008;13.658;2023-09-12T11:56:55;18.42;;;4.80;;
64291;SDS011;50628;51.008;13.658;2023-09-12T12:01:59;12.70;;;4.40;;
64291;SDS011;50628;51.008;13.658;2023-09-12T12:07:03;13.02;;;4.13;;
64291;SDS011;50628;51.008;13.658;2023-09-12T12:12:09;12.90;;;3.97;;
64291;SDS011;50628;51.008;13.658;2023-09-12T12:17:11;14.18;;;5.00;;
64291;SDS011;50628;51.008;13.658;2023-09-12T12:22:15;15.57;;;4.47;;
64291;SDS011;50628;51.008;13.658;2023-09-12T12:27:17;15.30;;;4.00;;
64291;SDS011;50628;51.008;13.658;2023-09-12T12:32:19;16.10;;;4.70;;
64291;SDS011;50628;51.008;13.658;2023-09-12T12:37:27;15.43;;;4.10;;
64291;SDS011;50628;51.008;13.658;2023-09-12T12:42:32;18.27;;;4.72;;
64291;SDS011;50628;51.008;13.658;2023-09-12T12:47:35;20.45;;;5.25;;
64291;SDS011;50628;51.008;13.658;2023-09-12T12:52:38;12.38;;;4.68;;
64291;SDS011;50628;51.008;13.658;2023-09-12T12:57:41;13.50;;;4.43;;
64291;SDS011;50628;51.008;13.658;2023-09-12T13:02:44;19.80;;;5.78;;
64291;SDS011;50628;51.008;13.658;2023-09-12T13:07:48;19.67;;;5.15;;
64291;SDS011;50628;51.008;13.658;2023-09-12T13:12:51;22.30;;;5.50;;
64291;SDS011;50628;51.008;13.658;2023-09-12T13:17:53;20.38;;;5.45;;
64291;SDS011;50628;51.008;13.658;2023-09-12T13:22:56;16.85;;;5.18;;
64291;SDS011;50628;51.008;13.658;2023-09-12T13:27:58;13.55;;;4.60;;
64291;SDS011;50628;51.008;13.658;2023-09-12T13:33:00;12.15;;;4.70;;
64291;SDS011;50628;51.008;13.658;2023-09-12T13:38:03;15.18;;;4.68;;
64291;SDS011;50628;51.008;13.658;2023-09-12T13:43:09;16.73;;;4.68;;
64291;SDS011;50628;51.008;13.658;2023-09-12T13:48:12;11.70;;;4.47;;
64291;SDS011;50628;51.008;13.658;2023-09-12T13:53:15;12.05;;;4.20;;
64291;SDS011;50628;51.008;13.658;2023-09-12T13:58:17;18.23;;;5.53;;
64291;SDS011;50628;51.008;13.658;2023-09-12T14:03:19;18.23;;;6.20;;
64291;SDS011;50628;51.008;13.658;2023-09-12T14:08:22;23.35;;;7.95;;
64291;SDS011;50628;51.008;13.658;2023-09-12T14:13:24;16.30;;;4.15;;
64291;SDS011;50628;51.008;13.658;2023-09-12T14:18:26;8.45;;;3.47;;
64291;SDS011;50628;51.008;13.658;2023-09-12T14:23:29;13.95;;;4.60;;
64291;SDS011;50628;51.008;13.658;2023-09-12T14:28:31;16.35;;;4.03;;
64291;SDS011;50628;51.008;13.658;2023-09-12T14:33:34;17.73;;;9.07;;
64291;SDS011;50628;51.008;13.658;2023-09-12T14:38:37;15.73;;;4.93;;
64291;SDS011;50628;51.008;13.658;2023-09-12T14:43:39;22.60;;;6.28;;
64291;SDS011;50628;51.008;13.658;2023-09-12T14:48:41;17.27;;;3.72;;
64291;SDS011;50628;51.008;13.658;2023-09-12T14:53:46;20.38;;;4.90;;
64291;SDS011;50628;51.008;13.658;2023-09-12T14:58:49;9.25;;;3.80;;
64291;SDS011;50628;51.008;13.658;2023-09-12T15:03:50;17.25;;;4.43;;
64291;SDS011;50628;51.008;13.658;2023-09-12T15:08:54;16.25;;;3.55;;
64291;SDS011;50628;51.008;13.658;2023-09-12T15:13:55;20.13;;;4.43;;
64291;SDS011;50628;51.008;13.658;2023-09-12T15:18:57;10.20;;;3.40;;
64291;SDS011;50628;51.008;13.658;2023-09-12T15:24:01;14.48;;;4.10;;
64291;SDS011;50628;51.008;13.658;2023-09-12T15:29:03;20.25;;;7.25;;
64291;SDS011;50628;51.008;13.658;2023-09-12T15:34:07;14.52;;;4.30;;
64291;SDS011;50628;51.008;13.658;2023-09-12T15:39:11;14.48;;;5.47;;
64291;SDS011;50628;51.008;13.658;2023-09-12T15:44:13;16.63;;;6.43;;
64291;SDS011;50628;51.008;13.658;2023-09-12T15:49:14;11.02;;;4.20;;
64291;SDS011;50628;51.008;13.658;2023-09-12T15:54:18;17.13;;;4.05;;
64291;SDS011;50628;51.008;13.658;2023-09-12T15:59:19;18.23;;;4.75;;
64291;SDS011;50628;51.008;13.658;2023-09-12T16:04:21;19.50;;;3.80;;
64291;SDS011;50628;51.008;13.658;2023-09-12T16:09:26;16.48;;;4.70;;
64291;SDS011;50628;51.008;13.658;2023-09-12T16:14:28;15.18;;;4.47;;
64291;SDS011;50628;51.008;13.658;2023-09-12T16:19:30;14.95;;;4.95;;
64291;SDS011;50628;51.008;13.658;2023-09-12T16:24:33;13.40;;;3.40;;
64291;SDS011;50628;51.008;13.658;2023-09-12T16:29:35;15.60;;;3.88;;
64291;SDS011;50628;51.008;13.658;2023-09-12T16:34:37;20.08;;;4.22;;
64291;SDS011;50628;51.008;13.658;2023-09-12T16:39:40;15.50;;;4.40;;
64291;SDS011;50628;51.008;13.658;2023-09-12T16:44:42;23.00;;;4.85;;
64291;SDS011;50628;51.008;13.658;2023-09-12T16:49:45;17.00;;;3.92;;
64291;SDS011;50628;51.008;13.658;2023-09-12T16:54:48;14.95;;;3.72;;
64291;SDS011;50628;51.008;13.658;2023-09-12T16:59:50;14.13;;;4.40;;
64291;SDS011;50628;51.008;13.658;2023-09-12T17:04:52;15.63;;;4.88;;
64291;SDS011;50628;51.008;13.658;2023-09-12T17:09:55;33.30;;;5.97;;
64291;SDS011;50628;51.008;13.658;2023-09-12T17:14:57;49.13;;;6.60;;
64291;SDS011;50628;51.008;13.658;2023-09-12T17:19:59;38.25;;;5.55;;
64291;SDS011;50628;51.008;13.658;2023-09-12T17:25:02;23.58;;;4.70;;
64291;SDS011;50628;51.008;13.658;2023-09-12T17:30:05;17.90;;;5.18;;
64291;SDS011;50628;51.008;13.658;2023-09-12T17:35:08;25.20;;;6.28;;
64291;SDS011;50628;51.008;13.658;2023-09-12T17:40:12;15.10;;;4.93;;
64291;SDS011;50628;51.008;13.658;2023-09-12T17:45:14;19.42;;;7.88;;
64291;SDS011;50628;51.008;13.658;2023-09-12T17:50:16;18.33;;;5.15;;
64291;SDS011;50628;51.008;13.658;2023-09-12T17:55:19;18.88;;;5.28;;
64291;SDS011;50628;51.008;13.658;2023-09-12T18:00:22;15.40;;;5.20;;
64291;SDS011;50628;51.008;13.658;2023-09-12T18:05:27;9.73;;;4.93;;
64291;SDS011;50628;51.008;13.658;2023-09-12T18:10:31;20.45;;;5.32;;
64291;SDS011;50628;51.008;13.658;2023-09-12T18:15:33;17.35;;;4.57;;
64291;SDS011;50628;51.008;13.658;2023-09-12T18:20:34;12.52;;;5.30;;
64291;SDS011;50628;51.008;13.658;2023-09-12T18:25:38;16.05;;;5.60;;
64291;SDS011;50628;51.008;13.658;2023-09-12T18:30:40;17.83;;;4.93;;
64291;SDS011;50628;51.008;13.658;2023-09-12T18:35:41;19.98;;;5.88;;
64291;SDS011;50628;51.008;13.658;2023-09-12T18:40:45;16.70;;;4.97;;
64291;SDS011;50628;51.008;13.658;2023-09-12T18:45:48;18.42;;;6.32;;
64291;SDS011;50628;51.008;13.658;2023-09-12T18:50:50;18.42;;;6.22;;
64291;SDS011;50628;51.008;13.658;2023-09-12T18:55:54;18.05;;;6.60;;
64291;SDS011;50628;51.008;13.658;2023-09-12T19:00:56;12.13;;;5.32;;
64291;SDS011;50628;51.008;13.658;2023-09-12T19:05:58;15.05;;;6.30;;
64291;SDS011;50628;51.008;13.658;2023-09-12T19:11:01;18.83;;;5.57;;
64291;SDS011;50628;51.008;13.658;2023-09-12T19:16:04;13.73;;;5.25;;
64291;SDS011;50628;51.008;13.658;2023-09-12T19:21:05;14.02;;;5.35;;
64291;SDS011;50628;51.008;13.658;2023-09-12T19:26:09;20.65;;;6.38;;
64291;SDS011;50628;51.008;13.658;2023-09-12T19:31:12;18.52;;;6.47;;
64291;SDS011;50628;51.008;13.658;2023-09-12T19:36:14;12.68;;;5.38;;
64291;SDS011;50628;51.008;13.658;2023-09-12T19:41:18;13.73;;;5.70;;
64291;SDS011;50628;51.008;13.658;2023-09-12T19:46:20;18.48;;;6.72;;
64291;SDS011;50628;51.008;13.658;2023-09-12T19:51:22;18.67;;;5.88;;
64291;SDS011;50628;51.008;13.658;2023-09-12T19:56:25;16.65;;;6.45;;
64291;SDS011;50628;51.008;13.658;2023-09-12T20:01:27;16.23;;;6.10;;
64291;SDS011;50628;51.008;13.658;2023-09-12T20:06:29;14.32;;;8.20;;
64291;SDS011;50628;51.008;13.658;2023-09-12T20:11:32;16.40;;;6.82;;
64291;SDS011;50628;51.008;13.658;2023-09-12T20:16:34;9.15;;;5.95;;
64291;SDS011;50628;51.008;13.658;2023-09-12T20:21:36;13.18;;;6.85;;
64291;SDS011;50628;51.008;13.658;2023-09-12T20:26:40;18.65;;;7.13;;
64291;SDS011;50628;51.008;13.658;2023-09-12T20:31:44;14.35;;;6.47;;
64291;SDS011;50628;51.008;13.658;2023-09-12T20:36:48;14.05;;;7.30;;
64291;SDS011;50628;51.008;13.658;2023-09-12T20:41:52;16.08;;;7.07;;
64291;SDS011;50628;51.008;13.658;2023-09-12T20:46:56;13.20;;;6.63;;
64291;SDS011;50628;51.008;13.658;2023-09-12T20:51:59;14.52;;;7.53;;
64291;SDS011;50628;51.008;13.658;2023-09-12T20:57:02;16.05;;;7.72;;
64291;SDS011;50628;51.008;13.658;2023-09-12T21:02:05;15.00;;;7.75;;
64291;SDS011;50628;51.008;13.658;2023-09-12T21:07:07;16.20;;;6.97;;
64291;SDS011;50628;51.008;13.658;2023-09-12T21:12:10;20.77;;;7.68;;
64291;SDS011;50628;51.008;13.658;2023-09-12T21:17:12;20.00;;;9.88;;
64291;SDS011;50628;51.008;13.658;2023-09-12T21:22:14;14.75;;;8.82;;
64291;SDS011;50628;51.008;13.658;2023-09-12T21:27:17;15.10;;;8.10;;
64291;SDS011;50628;51.008;13.658;2023-09-12T21:32:19;12.13;;;6.75;;
64291;SDS011;50628;51.008;13.658;2023-09-12T21:37:21;15.57;;;7.72;;
64291;SDS011;50628;51.008;13.658;2023-09-12T21:42:24;13.70;;;7.45;;
64291;SDS011;50628;51.008;13.658;2023-09-12T21:47:26;16.77;;;7.43;;
64291;SDS011;50628;51.008;13.658;2023-09-12T21:52:28;15.45;;;7.57;;
64291;SDS011;50628;51.008;13.658;2023-09-12T21:57:31;12.05;;;7.10;;
64291;SDS011;50628;51.008;13.658;2023-09-12T22:02:33;13.05;;;7.57;;
64291;SDS011;50628;51.008;13.658;2023-09-12T22:07:35;14.93;;;7.85;;
64291;SDS011;50628;51.008;13.658;2023-09-12T22:12:38;13.30;;;6.75;;
64291;SDS011;50628;51.008;13.658;2023-09-12T22:17:40;15.02;;;6.97;;
64291;SDS011;50628;51.008;13.658;2023-09-12T22:22:43;13.25;;;7.35;;
64291;SDS011;50628;51.008;13.658;2023-09-12T22:27:46;15.68;;;6.97;;
64291;SDS011;50628;51.008;13.658;2023-09-12T22:32:48;20.73;;;7.45;;
64291;SDS011;50628;51.008;13.658;2023-09-12T22:37:50;14.80;;;7.15;;
64291;SDS011;50628;51.008;13.658;2023-09-12T22:42:53;13.80;;;6.97;;
64291;SDS011;50628;51.008;13.658;2023-09-12T22:47:55;14.55;;;6.93;;
64291;SDS011;50628;51.008;13.658;2023-09-12T22:52:58;13.85;;;7.65;;
64291;SDS011;50628;51.008;13.658;2023-09-12T22:58:02;9.90;;;5.72;;
64291;SDS011;50628;51.008;13.658;2023-09-12T23:03:04;11.57;;;7.15;;
64291;SDS011;50628;51.008;13.658;2023-09-12T23:08:06;13.20;;;7.57;;
64291;SDS011;50628;51.008;13.658;2023-09-12T23:13:10;15.65;;;6.53;;
64291;SDS011;50628;51.008;13.658;2023-09-12T23:18:11;14.85;;;7.07;;
64291;SDS011;50628;51.008;13.658;2023-09-12T23:23:14;13.15;;;7.10;;
64291;SDS011;50628;51.008;13.658;2023-09-12T23:28:17;19.02;;;7.13;;
64291;SDS011;50628;51.008;13.658;2023-09-12T23:33:19;11.30;;;6.97;;
64291;SDS011;50628;51.008;13.658;2023-09-12T23:38:21;10.50;;;7.00;;
64291;SDS011;50628;51.008;13.658;2023-09-12T23:43:24;13.73;;;7.20;;
64291;SDS011;50628;51.008;13.658;2023-09-12T23:48:26;13.00;;;7.13;;
64291;SDS011;50628;51.008;13.658;2023-09-12T23:53:28;12.50;;;6.88;;
64291;SDS011;50628;51.008;13.658;2023-09-12T23:58:31;15.27;;;7.47;;
